createdAt,value
2023-04-04T00:02:33.862Z,58.11
2023-04-04T00:07:54.479Z,58.66
2023-04-04T00:13:15.442Z,58.58
2023-04-04T00:18:36.303Z,58.61
2023-04-04T00:23:57.723Z,58.42
2023-04-04T00:29:18.632Z,58.07
2023-04-04T00:34:39.207Z,58.28
2023-04-04T00:40:00.036Z,58.74
2023-04-04T00:45:20.789Z,58.32
2023-04-04T00:50:41.795Z,57.82
2023-04-04T00:56:02.956Z,57.71
2023-04-04T01:01:25.861Z,58.15
2023-04-04T01:06:47.005Z,57.58
2023-04-04T01:12:07.702Z,57.69
2023-04-04T01:17:29.711Z,57.91
2023-04-04T01:22:51.920Z,58.14
2023-04-04T01:28:13.489Z,58.19
2023-04-04T01:33:43.391Z,58.44
2023-04-04T01:39:18.794Z,57.94
2023-04-04T01:44:39.900Z,59.02
2023-04-04T01:50:00.769Z,58.39
2023-04-04T01:55:21.901Z,58.50
2023-04-04T02:00:42.802Z,58.77
2023-04-04T02:06:03.947Z,58.76
2023-04-04T02:11:25.143Z,58.65
2023-04-04T02:16:46.240Z,58.78
2023-04-04T02:22:07.155Z,58.54
2023-04-04T02:27:27.828Z,58.62
2023-04-04T02:32:49.037Z,58.64
2023-04-04T02:38:12.872Z,58.89
2023-04-04T02:43:39.564Z,58.86
2023-04-04T02:49:03.746Z,58.41
2023-04-04T02:54:25.784Z,58.44
2023-04-04T02:59:46.987Z,58.69
2023-04-04T03:05:08.093Z,58.44
2023-04-04T03:10:32.777Z,58.42
2023-04-04T03:16:06.769Z,58.80
2023-04-04T03:21:47.614Z,59.23
2023-04-04T03:27:08.463Z,58.77
2023-04-04T03:32:29.161Z,59.10
2023-04-04T03:37:49.852Z,58.92
2023-04-04T03:43:10.576Z,59.31
2023-04-04T03:48:31.952Z,58.85
2023-04-04T03:53:52.535Z,58.35
2023-04-04T03:59:13.457Z,58.96
2023-04-04T04:04:34.156Z,58.89
2023-04-04T04:09:55.274Z,59.48
2023-04-04T04:15:16.048Z,59.02
2023-04-04T04:20:38.627Z,59.35
2023-04-04T04:25:59.708Z,59.18
2023-04-04T04:31:22.420Z,59.12
2023-04-04T04:36:45.518Z,58.93
2023-04-04T04:42:19.763Z,59.36
2023-04-04T04:47:46.271Z,59.55
2023-04-04T04:53:10.782Z,59.88
2023-04-04T04:58:32.528Z,59.50
2023-04-04T05:03:55.081Z,59.94
2023-04-04T05:09:22.811Z,59.56
2023-04-04T05:14:44.804Z,59.20
2023-04-04T05:20:07.744Z,59.57
2023-04-04T05:25:31.191Z,59.50
2023-04-04T05:30:53.623Z,59.43
2023-04-04T05:36:18.678Z,59.75
2023-04-04T05:41:47.223Z,59.97
2023-04-04T05:47:11.152Z,60.33
2023-04-04T05:52:36.594Z,59.59
2023-04-04T05:57:58.622Z,59.74
2023-04-04T06:03:33.892Z,60.23
2023-04-04T06:08:56.034Z,59.55
2023-04-04T06:14:16.657Z,59.77
2023-04-04T06:19:39.359Z,59.94
2023-04-04T06:24:59.976Z,59.93
2023-04-04T06:30:21.857Z,59.31
2023-04-04T06:35:45.881Z,59.52
2023-04-04T06:41:08.300Z,59.39
2023-04-04T06:46:31.478Z,58.81
2023-04-04T06:51:52.700Z,59.06
2023-04-04T06:57:13.726Z,58.78
2023-04-04T07:02:35.099Z,58.71
2023-04-04T07:07:57.038Z,58.65
2023-04-04T07:13:17.893Z,58.42
2023-04-04T07:18:38.634Z,58.50
2023-04-04T07:24:00.229Z,57.49
2023-04-04T07:29:24.079Z,57.64
2023-04-04T07:34:45.706Z,57.61
2023-04-04T07:40:08.783Z,58.13
2023-04-04T07:45:29.993Z,57.08
2023-04-04T07:50:50.633Z,56.89
2023-04-04T07:56:11.373Z,57.01
2023-04-04T08:01:32.158Z,57.15
2023-04-04T08:06:53.215Z,56.02
2023-04-04T08:12:13.999Z,55.67
2023-04-04T08:17:34.823Z,56.54
2023-04-04T08:22:55.436Z,55.66
2023-04-04T08:28:16.174Z,55.95
2023-04-04T08:33:47.251Z,55.57
2023-04-04T08:39:08.802Z,56.48
2023-04-04T08:44:30.753Z,56.08
2023-04-04T08:49:53.295Z,54.94
2023-04-04T08:55:15.398Z,55.18
2023-04-04T09:00:37.111Z,54.95
2023-04-04T09:05:57.986Z,55.50
2023-04-04T09:11:21.204Z,55.88
2023-04-04T09:16:42.454Z,55.30
2023-04-04T09:22:03.099Z,55.06
2023-04-04T09:27:24.097Z,55.14
2023-04-04T09:32:44.909Z,54.41
2023-04-04T09:38:08.981Z,54.98
2023-04-04T09:43:31.179Z,54.89
2023-04-04T09:48:52.183Z,55.01
2023-04-04T09:54:28.911Z,55.10
2023-04-04T09:59:51.439Z,54.10
2023-04-04T10:05:12.610Z,54.43
2023-04-04T10:10:34.391Z,55.03
2023-04-04T10:16:00.701Z,54.15
2023-04-04T10:21:22.577Z,54.52
2023-04-04T10:26:43.330Z,53.05
2023-04-04T10:32:12.574Z,53.60
2023-04-04T10:37:43.373Z,54.18
2023-04-04T10:43:05.332Z,53.37
2023-04-04T10:48:26.935Z,53.00
2023-04-04T10:53:48.449Z,54.53
2023-04-04T10:59:13.946Z,54.11
2023-04-04T11:04:42.082Z,53.47
2023-04-04T11:10:14.861Z,53.58
2023-04-04T11:15:58.498Z,52.86
2023-04-04T11:21:24.131Z,53.21
2023-04-04T11:26:46.158Z,52.94
2023-04-04T11:32:33.417Z,52.89
2023-04-04T11:37:54.161Z,52.69
2023-04-04T11:43:16.726Z,52.75
2023-04-04T11:48:38.891Z,52.51
2023-04-04T11:53:59.825Z,52.16
2023-04-04T11:59:22.733Z,52.79
2023-04-04T12:04:46.122Z,52.05
2023-04-04T12:10:09.069Z,52.31
2023-04-04T12:15:30.083Z,51.65
2023-04-04T12:20:52.186Z,52.20
2023-04-04T12:26:13.456Z,51.00
2023-04-04T12:31:34.548Z,52.10
2023-04-04T12:36:59.340Z,52.57
2023-04-04T12:42:25.121Z,51.84
2023-04-04T12:47:55.951Z,51.40
2023-04-04T12:59:04.903Z,51.07
2023-04-04T13:04:25.684Z,50.75
2023-04-04T13:09:58.518Z,51.33
2023-04-04T13:15:19.759Z,51.64
2023-04-04T13:20:40.690Z,51.24
2023-04-04T13:26:01.442Z,51.10
2023-04-04T13:31:22.303Z,51.21
2023-04-04T13:36:44.404Z,51.11
2023-04-04T13:42:05.028Z,50.97
2023-04-04T13:47:27.574Z,50.20
2023-04-04T13:52:48.470Z,50.80
2023-04-04T13:58:09.195Z,50.56
2023-04-04T14:03:31.127Z,50.97
2023-04-04T14:08:51.865Z,49.88
2023-04-04T14:14:12.461Z,50.42
2023-04-04T14:19:33.068Z,50.48
2023-04-04T14:24:53.696Z,50.63
2023-04-04T14:30:14.772Z,50.09
2023-04-04T14:35:36.588Z,49.86
2023-04-04T14:40:57.532Z,50.13
2023-04-04T14:46:19.851Z,49.69
2023-04-04T14:51:41.012Z,50.71
2023-04-04T14:57:02.305Z,50.57
2023-04-04T15:02:23.279Z,50.21
2023-04-04T15:07:45.357Z,49.37
2023-04-04T15:13:06.997Z,50.61
2023-04-04T15:18:28.387Z,50.08
2023-04-04T15:23:49.161Z,49.80
2023-04-04T15:29:09.894Z,49.94
2023-04-04T15:34:30.713Z,50.13
2023-04-04T15:39:53.644Z,49.43
2023-04-04T15:45:16.163Z,49.67
2023-04-04T15:50:36.886Z,50.17
2023-04-04T15:55:58.124Z,49.87
2023-04-04T16:01:18.894Z,49.85
2023-04-04T16:06:39.567Z,49.43
2023-04-04T16:12:02.309Z,49.89
2023-04-04T16:17:23.241Z,49.85
2023-04-04T16:22:44.132Z,49.76
2023-04-04T16:28:04.985Z,49.39
2023-04-04T16:33:25.739Z,49.89
2023-04-04T16:38:46.417Z,49.87
2023-04-04T16:44:07.152Z,49.61
2023-04-04T16:49:27.858Z,49.72
2023-04-04T16:54:48.542Z,49.69
2023-04-04T17:00:12.596Z,49.42
2023-04-04T17:05:33.428Z,49.28
2023-04-04T17:10:54.322Z,49.88
2023-04-04T17:16:15.116Z,50.10
2023-04-04T17:21:36.258Z,50.20
2023-04-04T17:26:58.385Z,51.05
2023-04-04T17:32:19.504Z,50.52
2023-04-04T17:37:40.967Z,50.10
2023-04-04T17:43:02.023Z,50.08
2023-04-04T17:48:26.786Z,51.33
2023-04-04T17:53:47.884Z,50.02
2023-04-04T17:59:08.800Z,50.67
2023-04-04T18:04:29.738Z,51.01
2023-04-04T18:09:50.848Z,50.62
2023-04-04T18:15:12.408Z,51.42
2023-04-04T18:20:42.562Z,51.11
2023-04-04T18:26:03.533Z,51.56
2023-04-04T18:31:24.272Z,50.91
2023-04-04T18:36:46.276Z,51.33
2023-04-04T18:42:10.588Z,51.34
2023-04-04T18:47:31.654Z,50.96
2023-04-04T18:52:52.676Z,52.43
2023-04-04T18:58:13.462Z,51.85
2023-04-04T19:03:41.977Z,51.46
2023-04-04T19:09:04.332Z,51.50
2023-04-04T19:14:26.056Z,51.33
2023-04-04T19:19:47.469Z,51.44
2023-04-04T19:25:09.038Z,51.02
2023-04-04T19:30:47.422Z,51.74
2023-04-04T19:36:11.237Z,51.45
2023-04-04T19:41:39.971Z,51.84
2023-04-04T19:47:01.174Z,51.93
2023-04-04T19:52:23.979Z,51.03
2023-04-04T19:57:44.747Z,51.16
2023-04-04T20:03:08.641Z,51.76
2023-04-04T20:08:36.590Z,51.83
2023-04-04T20:13:59.439Z,51.38
2023-04-04T20:19:20.844Z,51.38
2023-04-04T20:24:45.042Z,51.34
2023-04-04T20:30:11.671Z,51.38
2023-04-04T20:35:32.623Z,51.19
2023-04-04T20:40:54.275Z,51.36
2023-04-04T20:46:15.114Z,51.39
2023-04-04T20:51:37.833Z,52.15
2023-04-04T20:56:58.483Z,52.09
2023-04-04T21:02:23.503Z,52.08
2023-04-04T21:07:44.134Z,52.67
2023-04-04T21:13:06.010Z,52.11
2023-04-04T21:18:37.166Z,52.49
2023-04-04T21:24:01.663Z,52.19
2023-04-04T21:29:24.214Z,52.68
2023-04-04T21:34:44.870Z,52.63
2023-04-04T21:40:08.670Z,52.05
2023-04-04T21:45:29.265Z,52.10
2023-04-04T21:50:50.702Z,51.85
2023-04-04T21:56:12.354Z,52.07
2023-04-04T22:01:33.732Z,52.50
2023-04-04T22:06:54.696Z,51.93
2023-04-04T22:12:15.299Z,51.94
2023-04-04T22:17:36.332Z,52.35
2023-04-04T22:22:58.172Z,52.10
2023-04-04T22:28:24.803Z,52.32
2023-04-04T22:33:45.636Z,52.30
2023-04-04T22:39:06.357Z,52.09
2023-04-04T22:44:27.140Z,52.74
2023-04-04T22:49:51.041Z,52.46
2023-04-04T22:55:18.041Z,52.11
2023-04-04T23:00:39.382Z,52.51
2023-04-04T23:06:00.542Z,52.32
2023-04-04T23:11:22.130Z,52.52
2023-04-04T23:16:43.005Z,52.96
2023-04-04T23:22:03.783Z,52.74
2023-04-04T23:27:24.588Z,52.90
2023-04-04T23:32:45.340Z,53.05
2023-04-04T23:38:06.015Z,53.08
2023-04-04T23:43:26.600Z,53.01
2023-04-04T23:48:47.409Z,52.96
2023-04-04T23:54:09.688Z,52.91
2023-04-04T23:59:30.277Z,52.92
